Time;durP1;ratioP1;P1;durP2;ratioP2;P2;SDS_P1;SDS_P2;PMS_P1;PMS_P2;Temp;Humidity;BMP_temperature;BMP_pressure;BME280_temperature;BME280_humidity;BME280_pressure;Samples;Min_cycle;Max_cycle;Signal;HPM_P1;HPM_P2
2022/12/31 00:01:11;;;;;;;25.48;4.57;;;10.60;99.90;;;;;;5091521;28;20159;-83
2022/12/31 00:03:57;;;;;;;18.05;3.97;;;10.60;99.90;;;;;;5092723;28;20044;-85
2022/12/31 00:06:43;;;;;;;22.80;4.03;;;10.60;99.90;;;;;;5077815;28;20104;-80
2022/12/31 00:09:29;;;;;;;40.67;7.47;;;10.60;99.90;;;;;;5071880;28;20056;-84
2022/12/31 00:12:16;;;;;;;30.80;4.68;;;10.60;99.90;;;;;;5072850;28;20154;-81
2022/12/31 00:15:02;;;;;;;31.90;4.75;;;10.60;99.90;;;;;;5091786;28;20052;-80
2022/12/31 00:17:48;;;;;;;24.52;4.97;;;10.60;99.90;;;;;;5073686;28;20492;-80
2022/12/31 00:20:39;;;;;;;20.80;5.90;;;10.60;99.90;;;;;;5076966;28;20495;-83
2022/12/31 00:23:25;;;;;;;28.75;5.63;;;10.60;99.90;;;;;;5095548;28;20044;-80
2022/12/31 00:26:15;;;;;;;23.42;4.65;;;10.70;99.90;;;;;;5099893;28;20071;-79
2022/12/31 00:29:02;;;;;;;24.65;4.53;;;10.70;99.90;;;;;;5094871;28;20075;-80
2022/12/31 00:31:48;;;;;;;25.95;5.15;;;10.60;99.90;;;;;;5092677;28;20047;-81
2022/12/31 00:34:34;;;;;;;25.05;5.78;;;10.70;99.90;;;;;;5097984;28;20041;-82
2022/12/31 00:37:20;;;;;;;25.77;4.82;;;10.70;99.90;;;;;;5080857;28;20594;-85
2022/12/31 00:40:07;;;;;;;26.38;4.00;;;10.60;99.90;;;;;;5082218;28;20064;-84
2022/12/31 00:42:53;;;;;;;20.13;4.43;;;10.60;99.90;;;;;;5100448;28;20056;-85
2022/12/31 00:45:40;;;;;;;21.13;4.15;;;10.70;99.90;;;;;;5095981;28;20044;-85
2022/12/31 00:48:26;;;;;;;27.23;4.32;;;10.70;99.90;;;;;;5095220;28;20092;-80
2022/12/31 00:51:15;;;;;;;24.20;5.18;;;10.60;99.90;;;;;;5099342;28;20059;-83
2022/12/31 00:54:01;;;;;;;23.20;4.60;;;10.50;99.90;;;;;;5080214;28;20678;-84
2022/12/31 00:56:48;;;;;;;28.23;5.47;;;10.50;99.90;;;;;;5080410;28;20181;-79
2022/12/31 00:59:34;;;;;;;29.02;4.65;;;10.50;99.90;;;;;;5080332;28;20090;-84
2022/12/31 01:02:20;;;;;;;36.10;7.50;;;10.50;99.90;;;;;;5079773;28;20056;-81
2022/12/31 01:05:07;;;;;;;27.85;5.80;;;10.60;99.90;;;;;;5068223;28;20051;-82
2022/12/31 01:07:53;;;;;;;29.90;6.03;;;10.50;99.90;;;;;;5064825;28;20060;-84
2022/12/31 01:13:49;;;;;;;26.58;5.40;;;10.60;99.90;;;;;;5095661;28;20140;-84
2022/12/31 01:16:37;;;;;;;30.50;6.70;;;10.50;99.90;;;;;;5072418;28;20052;-89
2022/12/31 01:19:26;;;;;;;24.67;5.53;;;10.50;99.90;;;;;;5076728;28;20044;-83
2022/12/31 01:22:12;;;;;;;28.73;5.40;;;10.50;99.90;;;;;;5093357;28;20453;-81
2022/12/31 01:24:59;;;;;;;30.10;5.82;;;10.50;99.90;;;;;;5091195;28;20059;-80
2022/12/31 01:27:45;;;;;;;24.83;4.45;;;10.50;99.90;;;;;;5073733;28;20052;-81
2022/12/31 01:30:31;;;;;;;37.97;6.15;;;10.50;99.90;;;;;;5072872;28;20062;-83
2022/12/31 01:33:18;;;;;;;35.08;5.45;;;10.60;99.90;;;;;;5073354;28;20056;-81
2022/12/31 01:36:18;;;;;;;30.50;5.00;;;10.60;99.90;;;;;;5090436;28;20055;-87
2022/12/31 01:39:07;;;;;;;26.17;4.88;;;10.50;99.90;;;;;;5075368;28;20509;-83
2022/12/31 01:41:53;;;;;;;26.50;5.25;;;10.50;99.90;;;;;;5091048;28;20097;-86
2022/12/31 01:44:39;;;;;;;29.95;5.57;;;10.50;99.90;;;;;;5091976;28;20048;-84
2022/12/31 01:47:38;;;;;;;29.45;4.82;;;10.60;99.90;;;;;;5074185;28;20048;-84
2022/12/31 01:50:31;;;;;;;32.03;6.28;;;10.50;99.90;;;;;;5072429;28;20048;-86
2022/12/31 01:53:18;;;;;;;27.50;5.97;;;10.60;99.90;;;;;;5077324;28;20044;-82
2022/12/31 01:56:05;;;;;;;27.90;4.90;;;10.60;99.90;;;;;;5092739;28;20480;-87
2022/12/31 01:58:55;;;;;;;20.70;5.80;;;10.60;99.90;;;;;;5090740;28;20051;-85
2022/12/31 02:01:41;;;;;;;35.60;5.68;;;10.60;99.90;;;;;;5089878;28;20043;-81
2022/12/31 02:04:28;;;;;;;31.55;7.05;;;10.60;99.90;;;;;;5090831;28;20188;-80
2022/12/31 02:07:14;;;;;;;26.70;4.90;;;10.50;99.90;;;;;;5082093;28;20052;-84
2022/12/31 02:10:01;;;;;;;29.77;6.25;;;10.50;99.90;;;;;;5087255;28;20514;-84
2022/12/31 02:12:48;;;;;;;30.27;5.65;;;10.50;99.90;;;;;;5107734;28;20040;-81
2022/12/31 02:15:46;;;;;;;32.15;6.10;;;10.50;99.90;;;;;;5091119;28;20147;-81
2022/12/31 02:18:55;;;;;;;26.45;4.57;;;10.50;99.90;;;;;;5085742;28;20056;-84
2022/12/31 02:25:26;;;;;;;27.27;5.35;;;10.40;99.90;;;;;;5094642;28;20139;-79
2022/12/31 02:28:18;;;;;;;27.90;4.78;;;10.40;99.90;;;;;;5077062;28;20153;-82
2022/12/31 02:31:29;;;;;;;32.80;5.05;;;10.40;99.90;;;;;;5075425;28;20056;-83
2022/12/31 02:34:32;;;;;;;34.78;4.95;;;10.40;99.90;;;;;;5075672;28;20563;-83
2022/12/31 02:37:20;;;;;;;25.95;4.97;;;10.40;99.90;;;;;;5062710;28;20062;-81
2022/12/31 02:40:10;;;;;;;28.98;4.93;;;10.40;99.90;;;;;;5077766;28;20055;-84
2022/12/31 02:42:57;;;;;;;27.83;6.40;;;10.40;99.90;;;;;;5074820;28;20044;-80
2022/12/31 02:45:50;;;;;;;24.77;5.28;;;10.40;99.90;;;;;;5073303;28;20527;-83
2022/12/31 02:48:51;;;;;;;26.80;5.00;;;10.40;99.90;;;;;;5092390;28;20051;-82
2022/12/31 02:51:40;;;;;;;37.65;6.43;;;10.40;99.90;;;;;;5092510;28;20055;-78
2022/12/31 02:54:50;;;;;;;30.58;5.65;;;10.40;99.90;;;;;;5093047;28;20051;-80
2022/12/31 02:58:02;;;;;;;22.02;4.32;;;10.40;99.90;;;;;;5092680;28;20048;-84
2022/12/31 03:04:30;;;;;;;28.95;6.30;;;10.40;99.90;;;;;;5091485;28;20044;-81
2022/12/31 03:07:13;;;;;;;27.23;6.30;;;10.30;99.90;;;;;;5093244;28;20595;-85
2022/12/31 03:10:00;;;;;;;22.73;5.78;;;10.30;99.90;;;;;;5092658;28;20084;-83
2022/12/31 03:12:46;;;;;;;20.48;4.82;;;10.20;99.90;;;;;;5092167;28;20044;-81
2022/12/31 03:15:33;;;;;;;27.63;5.97;;;10.30;99.90;;;;;;5091974;28;20056;-83
2022/12/31 03:22:26;;;;;;;28.88;6.13;;;10.30;99.90;;;;;;5091838;28;20776;-83
2022/12/31 03:27:38;;;;;;;25.77;6.68;;;10.30;99.90;;;;;;5077358;28;20044;-79
2022/12/31 03:30:25;;;;;;;27.35;6.65;;;10.20;99.90;;;;;;5100963;28;20048;-80
2022/12/31 03:33:11;;;;;;;23.02;7.57;;;10.20;99.90;;;;;;5084004;28;20052;-83
2022/12/31 03:35:58;;;;;;;27.88;7.50;;;10.10;99.90;;;;;;5074279;28;20567;-85
2022/12/31 03:38:44;;;;;;;27.13;8.30;;;10.10;99.90;;;;;;5091843;28;20502;-82
2022/12/31 03:41:30;;;;;;;27.35;7.22;;;10.10;99.90;;;;;;5090053;28;20503;-81
2022/12/31 03:44:16;;;;;;;34.78;8.60;;;10.10;99.90;;;;;;5060384;28;20105;-80
2022/12/31 03:47:02;;;;;;;25.20;7.57;;;10.10;99.90;;;;;;5072910;28;20048;-82
2022/12/31 03:49:49;;;;;;;30.63;9.15;;;10.10;99.90;;;;;;5091423;28;20044;-81
2022/12/31 03:52:36;;;;;;;34.60;9.02;;;10.10;99.90;;;;;;5073231;28;20101;-81
2022/12/31 03:55:22;;;;;;;32.97;8.90;;;10.10;99.90;;;;;;5090564;28;20048;-81
2022/12/31 03:58:09;;;;;;;23.27;6.90;;;10.00;99.90;;;;;;5072003;28;20051;-83
2022/12/31 04:00:55;;;;;;;24.85;6.80;;;10.00;99.90;;;;;;5072808;28;20048;-88
2022/12/31 04:03:41;;;;;;;22.52;6.85;;;10.00;99.90;;;;;;5090330;28;20040;-80
2022/12/31 04:06:27;;;;;;;20.98;5.30;;;10.00;99.90;;;;;;5091040;28;20093;-79
2022/12/31 04:09:13;;;;;;;23.15;5.03;;;10.00;99.90;;;;;;5089411;28;20050;-81
2022/12/31 04:11:59;;;;;;;19.55;4.55;;;10.00;99.90;;;;;;5090841;28;20408;-80
2022/12/31 04:14:46;;;;;;;15.52;4.35;;;10.00;99.90;;;;;;5058480;28;20056;-81
2022/12/31 04:17:32;;;;;;;22.23;4.35;;;10.00;99.90;;;;;;5071570;28;20442;-81
2022/12/31 04:20:18;;;;;;;24.45;4.25;;;10.00;99.90;;;;;;5089739;28;20087;-83
2022/12/31 04:23:04;;;;;;;19.95;4.05;;;9.90;99.90;;;;;;5061126;28;20389;-82
2022/12/31 04:25:52;;;;;;;18.65;4.22;;;10.00;99.90;;;;;;5053244;28;20045;-81
2022/12/31 04:28:38;;;;;;;19.42;4.95;;;9.90;99.90;;;;;;5072018;28;20427;-80
2022/12/31 04:31:24;;;;;;;19.35;3.65;;;9.90;99.90;;;;;;5081204;28;20147;-80
2022/12/31 04:34:11;;;;;;;17.63;4.25;;;9.90;99.90;;;;;;5075347;28;20045;-81
2022/12/31 04:36:57;;;;;;;16.25;3.55;;;9.90;99.90;;;;;;5057206;28;20091;-80
2022/12/31 04:39:43;;;;;;;20.48;3.90;;;10.00;99.90;;;;;;5069837;28;20139;-78
2022/12/31 04:42:29;;;;;;;15.57;3.90;;;9.90;99.90;;;;;;5070651;28;20044;-78
2022/12/31 04:45:15;;;;;;;19.60;3.45;;;9.90;99.90;;;;;;5051829;28;20088;-79
2022/12/31 04:48:01;;;;;;;15.00;3.85;;;9.90;99.90;;;;;;5069243;28;20052;-77
2022/12/31 04:50:48;;;;;;;15.50;3.97;;;9.90;99.90;;;;;;5051531;28;20056;-78
2022/12/31 04:53:35;;;;;;;14.77;3.72;;;9.90;99.90;;;;;;5069601;28;20050;-82
2022/12/31 04:56:23;;;;;;;16.25;3.22;;;9.80;99.90;;;;;;5070250;28;20052;-79
2022/12/31 04:59:09;;;;;;;16.08;3.38;;;9.90;99.90;;;;;;5068568;28;20147;-77
2022/12/31 05:01:55;;;;;;;14.95;3.38;;;9.90;99.90;;;;;;5070357;28;20052;-81
2022/12/31 05:04:41;;;;;;;12.95;3.45;;;9.90;99.90;;;;;;5051788;28;20515;-79
2022/12/31 05:07:27;;;;;;;12.75;2.97;;;9.80;99.90;;;;;;5069731;28;20113;-78
2022/12/31 05:10:14;;;;;;;10.75;3.10;;;9.80;99.90;;;;;;5070670;28;20045;-78
2022/12/31 05:13:00;;;;;;;11.15;3.13;;;9.80;99.90;;;;;;5068522;28;20084;-77
2022/12/31 05:15:46;;;;;;;16.10;2.80;;;9.80;99.90;;;;;;5069145;28;20492;-79
2022/12/31 05:18:33;;;;;;;18.42;2.78;;;9.80;99.90;;;;;;5052046;28;20135;-81
2022/12/31 05:21:20;;;;;;;13.48;2.50;;;9.80;99.90;;;;;;5052409;28;20051;-82
2022/12/31 05:24:07;;;;;;;14.73;2.78;;;9.70;99.90;;;;;;5054786;28;20068;-78
2022/12/31 05:26:53;;;;;;;16.73;2.75;;;9.70;99.90;;;;;;5069241;28;20060;-78
2022/12/31 05:29:39;;;;;;;15.10;2.67;;;9.70;99.90;;;;;;5051269;28;20048;-79
2022/12/31 05:32:26;;;;;;;22.55;3.50;;;9.70;99.90;;;;;;5069930;28;20056;-79
2022/12/31 05:35:12;;;;;;;15.48;4.43;;;9.70;99.90;;;;;;5052785;28;20049;-78
2022/12/31 05:37:59;;;;;;;13.45;4.35;;;9.70;99.90;;;;;;5070776;28;20416;-81
2022/12/31 05:40:46;;;;;;;21.63;4.60;;;9.70;99.90;;;;;;5047402;28;20099;-84
2022/12/31 05:43:35;;;;;;;16.85;4.97;;;9.70;99.90;;;;;;5082720;28;20094;-79
2022/12/31 05:46:21;;;;;;;20.38;5.15;;;9.70;99.90;;;;;;5079578;28;20048;-77
2022/12/31 05:49:07;;;;;;;18.10;5.05;;;9.70;99.90;;;;;;5057656;28;20048;-79
2022/12/31 05:51:53;;;;;;;17.85;5.45;;;9.70;99.90;;;;;;5074610;28;20048;-81
2022/12/31 05:54:40;;;;;;;17.75;5.60;;;9.70;99.90;;;;;;5055184;28;20622;-80
2022/12/31 05:57:26;;;;;;;17.60;5.35;;;9.70;99.90;;;;;;5055144;28;20052;-80
2022/12/31 06:00:13;;;;;;;20.45;5.88;;;9.70;99.90;;;;;;5066109;28;20049;-80
2022/12/31 06:02:59;;;;;;;21.00;5.93;;;9.70;99.90;;;;;;5053370;28;20493;-84
2022/12/31 06:05:45;;;;;;;18.63;5.95;;;9.70;99.90;;;;;;5073350;28;20660;-80
2022/12/31 06:08:31;;;;;;;21.00;5.78;;;9.70;99.90;;;;;;5073378;28;20048;-79
2022/12/31 06:11:17;;;;;;;17.13;5.50;;;9.70;99.90;;;;;;5058881;28;20522;-83
2022/12/31 06:14:04;;;;;;;14.15;4.35;;;9.70;99.90;;;;;;5073006;28;20052;-80
2022/12/31 06:16:50;;;;;;;12.18;3.83;;;9.70;99.90;;;;;;5053560;28;20048;-80
2022/12/31 06:19:36;;;;;;;16.02;3.50;;;9.70;99.90;;;;;;5073457;28;20044;-81
2022/12/31 06:22:22;;;;;;;12.45;3.20;;;9.60;99.90;;;;;;5062046;28;20076;-79
2022/12/31 06:25:08;;;;;;;9.00;2.90;;;9.60;99.90;;;;;;5072288;28;20136;-79
2022/12/31 06:27:55;;;;;;;8.52;2.15;;;9.50;99.90;;;;;;5093487;28;20047;-82
2022/12/31 06:30:41;;;;;;;6.88;2.22;;;9.40;99.90;;;;;;5093272;28;20059;-82
2022/12/31 06:33:27;;;;;;;7.50;2.03;;;9.40;99.90;;;;;;5075947;28;20048;-82
2022/12/31 06:36:15;;;;;;;8.57;1.38;;;9.40;99.90;;;;;;5092469;28;20055;-81
2022/12/31 06:39:01;;;;;;;7.03;1.20;;;9.30;99.90;;;;;;5092930;28;20055;-80
2022/12/31 06:41:47;;;;;;;7.60;1.83;;;9.30;99.90;;;;;;5074631;28;20056;-84
2022/12/31 06:44:34;;;;;;;6.55;1.33;;;9.30;99.90;;;;;;5074609;28;20075;-83
2022/12/31 06:47:20;;;;;;;10.00;1.60;;;9.30;99.90;;;;;;5079104;28;20044;-80
2022/12/31 06:50:06;;;;;;;7.70;1.48;;;9.30;99.90;;;;;;5072100;28;20552;-80
2022/12/31 06:52:53;;;;;;;9.68;1.52;;;9.30;99.90;;;;;;5099124;28;20052;-82
2022/12/31 06:55:39;;;;;;;14.55;2.45;;;9.20;99.90;;;;;;5092880;28;20051;-84
2022/12/31 06:58:25;;;;;;;14.35;3.45;;;9.30;99.90;;;;;;5060406;28;20480;-81
2022/12/31 07:01:33;;;;;;;12.55;2.40;;;9.20;99.90;;;;;;5092286;28;20090;-80
2022/12/31 07:05:00;;;;;;;10.80;1.50;;;9.30;99.90;;;;;;5092263;28;20052;-81
2022/12/31 07:08:02;;;;;;;9.45;2.20;;;9.20;99.90;;;;;;4974850;28;20050;-79
2022/12/31 07:11:10;;;;;;;12.52;2.58;;;9.20;99.90;;;;;;4973532;28;20062;-79
2022/12/31 07:14:03;;;;;;;11.98;4.00;;;9.30;99.90;;;;;;5091277;28;20048;-79
2022/12/31 07:17:00;;;;;;;9.77;4.00;;;9.30;99.90;;;;;;5095072;28;20071;-81
2022/12/31 07:19:55;;;;;;;12.60;5.00;;;9.30;99.90;;;;;;5092459;28;20515;-80
2022/12/31 07:22:42;;;;;;;15.02;6.38;;;9.40;99.90;;;;;;5092435;28;20063;-80
2022/12/31 07:25:30;;;;;;;15.18;7.32;;;9.50;99.90;;;;;;5060458;28;20071;-80
2022/12/31 07:28:36;;;;;;;12.52;6.65;;;9.50;99.90;;;;;;5091763;28;20048;-79
2022/12/31 07:31:33;;;;;;;14.48;7.13;;;9.60;99.90;;;;;;5082416;28;20059;-82
2022/12/31 07:34:52;;;;;;;14.70;7.00;;;9.60;99.90;;;;;;5090914;28;20055;-80
2022/12/31 07:37:41;;;;;;;11.65;6.28;;;9.50;99.90;;;;;;5091924;28;20143;-80
2022/12/31 07:41:01;;;;;;;12.70;6.00;;;9.50;99.90;;;;;;5073282;28;20126;-79
2022/12/31 07:44:17;;;;;;;11.43;5.25;;;9.50;99.90;;;;;;5067123;28;20043;-79
2022/12/31 07:47:12;;;;;;;11.53;4.97;;;9.60;99.90;;;;;;5090901;28;20048;-80
2022/12/31 07:49:59;;;;;;;14.60;5.32;;;9.50;99.90;;;;;;5091993;28;20052;-84
2022/12/31 07:52:45;;;;;;;11.00;5.22;;;9.50;99.90;;;;;;5076254;28;20051;-79
2022/12/31 07:55:33;;;;;;;10.32;5.63;;;9.50;99.90;;;;;;5072713;28;20101;-80
2022/12/31 07:58:45;;;;;;;10.98;5.90;;;9.50;99.90;;;;;;5091838;28;20047;-82
2022/12/31 08:01:53;;;;;;;12.02;5.78;;;9.50;99.90;;;;;;5053435;28;20100;-81
2022/12/31 08:05:07;;;;;;;14.60;6.57;;;9.50;99.90;;;;;;5071767;28;20056;-80
2022/12/31 08:08:31;;;;;;;13.18;6.90;;;9.50;99.90;;;;;;5072843;28;20056;-79
2022/12/31 08:11:23;;;;;;;12.65;6.82;;;9.50;99.90;;;;;;5060386;28;20054;-81
2022/12/31 08:14:11;;;;;;;11.10;6.95;;;9.50;99.90;;;;;;5092400;28;20067;-83
2022/12/31 08:16:58;;;;;;;11.00;6.50;;;9.60;99.90;;;;;;5098002;28;20097;-81
2022/12/31 08:19:45;;;;;;;11.60;6.30;;;9.60;99.90;;;;;;5073245;28;20058;-81
2022/12/31 08:22:46;;;;;;;10.75;6.63;;;9.60;99.90;;;;;;5090743;28;20054;-78
2022/12/31 08:26:08;;;;;;;10.10;6.05;;;9.60;99.90;;;;;;5145891;27;1385519;-81
2022/12/31 08:29:35;;;;;;;15.10;7.80;;;9.60;99.90;;;;;;5169299;27;20050;-81
2022/12/31 08:32:27;;;;;;;12.57;6.60;;;9.60;99.90;;;;;;5169484;27;20050;-81
2022/12/31 08:35:25;;;;;;;12.70;7.53;;;9.50;99.90;;;;;;5169748;27;20042;-79
2022/12/31 08:38:39;;;;;;;13.88;8.63;;;9.50;99.90;;;;;;5170648;27;20498;-79
2022/12/31 08:41:44;;;;;;;14.32;7.45;;;9.50;99.90;;;;;;5166089;27;20081;-80
2022/12/31 08:44:38;;;;;;;11.95;6.53;;;9.50;99.90;;;;;;5148294;27;20406;-80
2022/12/31 08:47:30;;;;;;;10.57;7.13;;;9.50;99.90;;;;;;5148163;27;20043;-80
2022/12/31 08:50:18;;;;;;;12.32;7.13;;;9.50;99.90;;;;;;5128574;27;20141;-80
2022/12/31 08:53:04;;;;;;;11.40;7.55;;;9.60;99.90;;;;;;5128440;27;20490;-83
2022/12/31 08:56:05;;;;;;;10.43;7.13;;;9.80;99.90;;;;;;5147858;27;20047;-81
2022/12/31 08:58:54;;;;;;;9.90;7.22;;;9.90;99.90;;;;;;5129621;27;20579;-81
2022/12/31 09:02:38;;;;;;;10.25;7.10;;;10.10;99.90;;;;;;5134218;27;20437;-84
2022/12/31 09:05:47;;;;;;;11.65;6.82;;;10.30;99.90;;;;;;5031153;28;20049;-82
2022/12/31 09:08:45;;;;;;;8.90;5.75;;;10.40;99.90;;;;;;5029654;28;20183;-81
2022/12/31 09:11:57;;;;;;;8.65;5.15;;;10.60;99.90;;;;;;5148248;27;20054;-83
2022/12/31 09:14:45;;;;;;;8.88;6.05;;;10.80;99.90;;;;;;5115568;27;20078;-80
2022/12/31 09:17:51;;;;;;;8.85;4.93;;;10.90;99.90;;;;;;5128261;27;20051;-83
2022/12/31 09:20:37;;;;;;;9.48;4.88;;;11.00;99.90;;;;;;5146507;27;20051;-79
2022/12/31 09:23:24;;;;;;;7.15;4.22;;;11.10;99.90;;;;;;5114252;27;20461;-80
2022/12/31 09:26:35;;;;;;;7.53;4.43;;;11.20;99.90;;;;;;5146214;27;20103;-79
2022/12/31 09:29:42;;;;;;;10.48;4.40;;;11.20;99.90;;;;;;5146928;27;20069;-80
2022/12/31 09:32:34;;;;;;;9.13;3.53;;;11.30;99.90;;;;;;5146485;27;20047;-82
2022/12/31 09:35:39;;;;;;;9.68;3.53;;;11.40;99.90;;;;;;5128216;27;20047;-86
2022/12/31 09:38:25;;;;;;;11.93;3.17;;;11.50;99.90;;;;;;5132439;27;20570;-82
2022/12/31 09:41:23;;;;;;;9.85;3.30;;;11.50;99.90;;;;;;5133072;27;20796;-85
2022/12/31 09:44:18;;;;;;;7.75;2.70;;;11.60;99.90;;;;;;5131961;27;20522;-83
2022/12/31 09:47:15;;;;;;;6.20;2.47;;;11.70;99.90;;;;;;5114435;27;20129;-83
2022/12/31 09:50:47;;;;;;;6.88;2.65;;;11.70;99.90;;;;;;5124645;27;20035;-79
2022/12/31 09:54:14;;;;;;;12.27;3.28;;;11.70;99.90;;;;;;5116282;27;20043;-79
2022/12/31 09:57:06;;;;;;;10.43;2.60;;;11.70;99.90;;;;;;5031082;28;20076;-81
2022/12/31 10:00:21;;;;;;;11.23;3.42;;;11.70;99.90;;;;;;5132582;27;20039;-80
2022/12/31 10:03:22;;;;;;;8.50;2.47;;;11.70;99.90;;;;;;5113214;27;20503;-84
2022/12/31 10:06:40;;;;;;;13.75;2.67;;;11.80;99.90;;;;;;5113883;27;20156;-81
2022/12/31 10:09:52;;;;;;;5.97;2.00;;;11.80;99.90;;;;;;5131871;27;20089;-81
2022/12/31 10:12:56;;;;;;;9.25;2.05;;;11.90;99.90;;;;;;5132955;27;20047;-83
2022/12/31 10:16:21;;;;;;;8.48;2.00;;;11.90;99.90;;;;;;5113373;27;20055;-80
2022/12/31 10:19:12;;;;;;;7.95;1.40;;;11.90;99.90;;;;;;5131270;27;20050;-84
2022/12/31 10:22:27;;;;;;;10.52;2.30;;;12.00;99.90;;;;;;5131778;27;20047;-82
2022/12/31 10:25:19;;;;;;;8.57;2.08;;;12.10;99.90;;;;;;5116098;27;20051;-83
2022/12/31 10:28:24;;;;;;;10.30;2.25;;;12.30;99.90;;;;;;5112933;27;20509;-86
2022/12/31 10:31:23;;;;;;;8.35;1.40;;;12.30;99.90;;;;;;5135546;27;20059;-85
2022/12/31 10:35:06;;;;;;;13.18;1.92;;;12.30;99.90;;;;;;5116272;27;20054;-82
2022/12/31 10:38:04;;;;;;;11.15;2.22;;;12.30;99.90;;;;;;5028976;28;20046;-81
2022/12/31 10:41:27;;;;;;;12.38;3.45;;;12.40;99.90;;;;;;5029178;28;20133;-81
2022/12/31 10:44:52;;;;;;;11.27;2.20;;;12.40;99.90;;;;;;5118253;27;20490;-80
2022/12/31 10:48:15;;;;;;;13.60;2.00;;;12.40;99.90;;;;;;5134699;27;20047;-80
2022/12/31 10:51:10;;;;;;;20.33;3.10;;;12.50;99.90;;;;;;5102255;27;20479;-82
2022/12/31 10:54:25;;;;;;;14.10;2.58;;;12.60;99.90;;;;;;5113851;27;20043;-83
2022/12/31 10:57:11;;;;;;;11.00;2.60;;;12.70;99.90;;;;;;5112271;27;20050;-81
2022/12/31 11:00:07;;;;;;;20.08;4.90;;;12.70;99.90;;;;;;5112648;27;20498;-82
2022/12/31 11:03:14;;;;;;;18.25;3.40;;;12.80;99.90;;;;;;5131812;27;20047;-85
2022/12/31 11:06:48;;;;;;;10.65;2.40;;;12.90;99.90;;;;;;5130825;27;20091;-84
2022/12/31 11:10:04;;;;;;;11.77;3.10;;;13.20;99.90;;;;;;5131013;27;20047;-86
2022/12/31 11:13:10;;;;;;;15.43;2.85;;;13.40;99.90;;;;;;5114543;27;20552;-82
2022/12/31 11:16:26;;;;;;;11.50;3.05;;;13.50;99.90;;;;;;5118833;27;20096;-81
2022/12/31 11:19:23;;;;;;;23.17;3.13;;;13.50;99.90;;;;;;5054468;27;20042;-80
2022/12/31 11:22:35;;;;;;;13.52;2.72;;;13.30;99.90;;;;;;5132259;27;20035;-79
2022/12/31 11:25:51;;;;;;;13.10;2.83;;;13.10;99.90;;;;;;5130861;27;20502;-79
2022/12/31 11:28:49;;;;;;;20.15;3.22;;;13.00;99.90;;;;;;5117233;27;20092;-85
2022/12/31 11:32:01;;;;;;;14.48;3.40;;;13.00;99.90;;;;;;5099206;27;20090;-84
2022/12/31 11:34:59;;;;;;;17.35;3.92;;;12.90;99.90;;;;;;5132404;27;20122;-81
2022/12/31 11:38:22;;;;;;;13.50;3.17;;;12.90;99.90;;;;;;5107845;28;20051;-82
2022/12/31 11:41:32;;;;;;;15.15;2.95;;;12.80;99.90;;;;;;5110410;28;20051;-84
2022/12/31 11:44:54;;;;;;;29.75;5.80;;;12.70;99.90;;;;;;5097620;28;20380;-83
2022/12/31 11:48:12;;;;;;;13.85;3.00;;;12.60;99.90;;;;;;5110967;28;20066;-85
2022/12/31 11:51:30;;;;;;;19.73;4.25;;;12.50;99.90;;;;;;5109101;28;20545;-83
2022/12/31 11:54:41;;;;;;;19.67;3.58;;;12.50;99.90;;;;;;5107088;28;20055;-79
2022/12/31 11:57:32;;;;;;;16.65;3.72;;;12.50;99.90;;;;;;5108355;28;20047;-84
2022/12/31 12:00:21;;;;;;;14.30;3.00;;;12.50;99.90;;;;;;5108711;28;20097;-79
2022/12/31 12:03:11;;;;;;;19.10;3.97;;;12.60;99.90;;;;;;5111027;28;20143;-84
2022/12/31 12:05:58;;;;;;;26.42;3.20;;;12.70;99.90;;;;;;5110692;28;20046;-83
2022/12/31 12:08:45;;;;;;;19.35;2.85;;;12.60;99.90;;;;;;5109640;28;20043;-82
2022/12/31 12:11:36;;;;;;;19.38;3.72;;;12.70;99.90;;;;;;5110168;28;20149;-80
2022/12/31 12:14:38;;;;;;;17.95;2.67;;;12.70;99.90;;;;;;5110937;28;20047;-80
2022/12/31 12:17:31;;;;;;;14.55;2.70;;;12.70;99.90;;;;;;5108872;28;20052;-80
2022/12/31 12:20:34;;;;;;;16.20;3.00;;;12.80;99.90;;;;;;5111797;28;20106;-83
2022/12/31 12:23:25;;;;;;;17.15;2.65;;;12.70;99.90;;;;;;5099495;28;20055;-85
2022/12/31 12:26:44;;;;;;;10.25;2.05;;;12.90;99.90;;;;;;5113119;28;20048;-82
2022/12/31 12:29:34;;;;;;;13.32;2.85;;;12.90;99.90;;;;;;5071439;28;20432;-80
2022/12/31 12:32:24;;;;;;;13.55;2.30;;;12.90;99.90;;;;;;5129676;28;20039;-79
2022/12/31 12:35:15;;;;;;;12.25;2.38;;;12.90;99.90;;;;;;5129753;28;20053;-82
2022/12/31 12:38:12;;;;;;;11.65;2.83;;;12.80;99.90;;;;;;5114103;28;20054;-86
2022/12/31 12:41:09;;;;;;;11.95;2.78;;;12.90;99.90;;;;;;5110996;27;20100;-84
2022/12/31 12:44:04;;;;;;;11.40;2.45;;;12.80;99.90;;;;;;5129540;28;20043;-81
2022/12/31 12:46:52;;;;;;;14.88;3.20;;;12.90;99.90;;;;;;5111226;28;20062;-82
2022/12/31 12:49:43;;;;;;;14.35;3.03;;;12.90;99.90;;;;;;5129395;28;20074;-84
2022/12/31 12:52:37;;;;;;;12.02;3.65;;;12.90;99.90;;;;;;5110812;28;20055;-79
2022/12/31 12:55:46;;;;;;;18.15;2.83;;;12.90;99.90;;;;;;5129499;28;20103;-82
2022/12/31 12:58:38;;;;;;;13.95;3.13;;;12.90;99.90;;;;;;5111032;28;20553;-80
2022/12/31 13:01:40;;;;;;;12.57;3.22;;;12.90;99.90;;;;;;5097876;28;20095;-82
2022/12/31 13:04:41;;;;;;;19.88;4.32;;;12.90;99.90;;;;;;5130989;28;20418;-80
2022/12/31 13:07:48;;;;;;;15.57;3.80;;;12.90;99.90;;;;;;5119170;28;20053;-80
2022/12/31 13:10:48;;;;;;;15.68;3.10;;;12.90;99.90;;;;;;5131476;27;20058;-83
2022/12/31 13:13:53;;;;;;;15.27;2.92;;;12.90;99.90;;;;;;5133747;27;20043;-79
2022/12/31 13:17:02;;;;;;;16.48;2.83;;;12.80;99.90;;;;;;5101808;27;20512;-79
2022/12/31 13:20:31;;;;;;;15.27;3.45;;;12.80;99.90;;;;;;5114862;27;20047;-81
2022/12/31 13:23:30;;;;;;;16.27;4.80;;;12.80;99.90;;;;;;5113523;27;20047;-80
2022/12/31 13:26:31;;;;;;;19.98;3.10;;;12.80;99.90;;;;;;5132041;27;20057;-81
2022/12/31 13:29:20;;;;;;;13.70;3.97;;;12.70;99.90;;;;;;5114807;27;20043;-82
2022/12/31 13:32:11;;;;;;;18.67;4.03;;;12.80;99.90;;;;;;5132948;27;20047;-82
2022/12/31 13:35:24;;;;;;;18.38;3.58;;;12.80;99.90;;;;;;5101114;27;20079;-80
2022/12/31 13:38:17;;;;;;;21.45;3.67;;;12.80;99.90;;;;;;5132482;27;20126;-83
2022/12/31 13:41:12;;;;;;;22.27;3.95;;;12.80;99.90;;;;;;5132556;27;20503;-82
2022/12/31 13:44:05;;;;;;;19.58;4.15;;;12.70;99.90;;;;;;5113785;27;20065;-80
2022/12/31 13:46:57;;;;;;;22.00;4.43;;;12.70;99.90;;;;;;5114092;27;20131;-79
2022/12/31 13:49:49;;;;;;;20.38;3.17;;;12.70;99.90;;;;;;5114747;27;20133;-82
2022/12/31 13:52:51;;;;;;;14.48;3.00;;;12.70;99.90;;;;;;5132141;27;20440;-80
2022/12/31 13:55:43;;;;;;;22.65;4.82;;;12.60;99.90;;;;;;5132128;27;20059;-83
2022/12/31 13:58:32;;;;;;;20.30;3.92;;;12.60;99.90;;;;;;5117620;27;20147;-79
2022/12/31 14:01:40;;;;;;;20.65;3.80;;;12.50;99.90;;;;;;5132012;27;20554;-80
2022/12/31 14:04:48;;;;;;;24.17;4.65;;;12.50;99.90;;;;;;5132923;27;20107;-87
2022/12/31 14:07:42;;;;;;;15.00;3.33;;;12.40;99.90;;;;;;5122886;27;20059;-80
2022/12/31 14:10:34;;;;;;;17.10;4.07;;;12.30;99.90;;;;;;5125808;27;20043;-80
2022/12/31 14:14:17;;;;;;;17.88;3.03;;;12.20;99.90;;;;;;5144516;27;20043;-80
2022/12/31 14:17:14;;;;;;;16.25;3.47;;;12.10;99.90;;;;;;5033262;28;20053;-80
2022/12/31 14:20:34;;;;;;;10.95;2.80;;;12.10;99.90;;;;;;5017274;28;20164;-79
2022/12/31 14:23:49;;;;;;;18.50;3.83;;;12.10;99.90;;;;;;5100830;27;20047;-81
2022/12/31 14:26:51;;;;;;;14.88;3.38;;;12.00;99.90;;;;;;5132864;27;20682;-79
2022/12/31 14:29:58;;;;;;;12.70;2.55;;;12.00;99.90;;;;;;5132047;27;20398;-82
2022/12/31 14:32:59;;;;;;;10.70;2.35;;;12.00;99.90;;;;;;5112605;27;20050;-80
2022/12/31 14:36:08;;;;;;;11.80;1.83;;;12.00;99.90;;;;;;5113083;27;20050;-82
2022/12/31 14:39:37;;;;;;;6.70;1.40;;;12.00;99.90;;;;;;5099372;27;20055;-80
2022/12/31 14:42:29;;;;;;;9.95;2.17;;;12.00;99.90;;;;;;5013660;28;20057;-80
2022/12/31 14:45:46;;;;;;;9.07;1.52;;;11.90;99.90;;;;;;5115900;27;20087;-81
2022/12/31 14:49:04;;;;;;;7.95;2.03;;;12.00;99.90;;;;;;5100500;27;20183;-81
2022/12/31 14:51:50;;;;;;;8.77;2.38;;;12.00;99.90;;;;;;5131945;27;20596;-80
2022/12/31 14:54:37;;;;;;;8.52;1.77;;;11.90;99.90;;;;;;5132218;27;20055;-84
2022/12/31 14:57:25;;;;;;;5.60;1.42;;;11.90;99.90;;;;;;5120036;27;20059;-80
2022/12/31 15:00:33;;;;;;;7.28;1.92;;;11.90;99.90;;;;;;5136642;27;20061;-84
2022/12/31 15:03:42;;;;;;;5.47;1.70;;;11.90;99.90;;;;;;5104625;27;20058;-82
2022/12/31 15:06:50;;;;;;;3.65;1.48;;;11.90;99.90;;;;;;5139445;27;20399;-81
2022/12/31 15:10:10;;;;;;;8.98;1.95;;;11.80;99.90;;;;;;5138817;27;20058;-82
2022/12/31 15:13:18;;;;;;;7.75;1.48;;;11.80;99.90;;;;;;5140309;27;20043;-84
2022/12/31 15:16:36;;;;;;;8.40;1.60;;;11.80;99.90;;;;;;5142362;27;20047;-80
2022/12/31 15:20:00;;;;;;;9.80;1.95;;;11.70;99.90;;;;;;5132170;27;20051;-81
2022/12/31 15:22:48;;;;;;;3.85;1.42;;;11.70;99.90;;;;;;5134923;27;20054;-84
2022/12/31 15:25:38;;;;;;;5.70;1.75;;;11.60;99.90;;;;;;5134514;27;20088;-87